Time;durP1;ratioP1;P1;durP2;ratioP2;P2;SDS_P1;SDS_P2;PMS_P1;PMS_P2;Temp;Humidity;BMP_temperature;BMP_pressure;BME280_temperature;BME280_humidity;BME280_pressure;Samples;Min_cycle;Max_cycle;Signal;HPM_P1;HPM_P2
2023/08/18 00:00:08;;;;;;;8.53;5.13;;;;;;;;;;5063101;28;20179;-73
2023/08/18 00:03:15;;;;;;;6.47;5.00;;;;;;;;;;5075683;28;20623;-73
2023/08/18 00:06:19;;;;;;;5.70;5.00;;;;;;;;;;5075523;28;20184;-73
2023/08/18 00:09:24;;;;;;;6.70;4.97;;;;;;;;;;5075289;28;20183;-73
2023/08/18 00:12:28;;;;;;;7.97;5.40;;;;;;;;;;5062858;28;20222;-73
2023/08/18 00:15:32;;;;;;;9.33;5.10;;;;;;;;;;5062772;28;20195;-73
2023/08/18 00:18:36;;;;;;;5.77;5.07;;;;;;;;;;5062176;28;20211;-73
2023/08/18 00:21:40;;;;;;;7.10;4.63;;;;;;;;;;5062635;28;20215;-73
2023/08/18 00:24:44;;;;;;;5.70;4.57;;;;;;;;;;5074992;28;20176;-73
2023/08/18 00:27:48;;;;;;;7.30;4.27;;;;;;;;;;5062582;28;20175;-73
2023/08/18 00:30:52;;;;;;;7.40;5.30;;;;;;;;;;5062628;28;20520;-73
2023/08/18 00:33:58;;;;;;;6.80;4.60;;;;;;;;;;5062557;28;20172;-72
2023/08/18 00:37:02;;;;;;;7.07;4.50;;;;;;;;;;5062641;28;20211;-73
2023/08/18 00:40:06;;;;;;;7.57;4.57;;;;;;;;;;5062664;28;20183;-73
2023/08/18 00:43:12;;;;;;;6.87;4.93;;;;;;;;;;5062297;28;20179;-73
2023/08/18 00:46:19;;;;;;;8.03;5.57;;;;;;;;;;5062113;28;20539;-73
2023/08/18 00:49:24;;;;;;;8.60;5.90;;;;;;;;;;5062209;28;20172;-73
2023/08/18 00:52:28;;;;;;;6.17;5.00;;;;;;;;;;5061965;28;20220;-73
2023/08/18 00:55:32;;;;;;;5.60;5.03;;;;;;;;;;5050845;28;20184;-73
2023/08/18 00:58:38;;;;;;;7.13;4.63;;;;;;;;;;5050655;28;20223;-73
2023/08/18 01:01:42;;;;;;;5.90;4.87;;;;;;;;;;5050197;28;20214;-73
2023/08/18 01:04:47;;;;;;;8.07;5.07;;;;;;;;;;5061392;28;20199;-73
2023/08/18 01:07:51;;;;;;;6.47;5.03;;;;;;;;;;5061576;28;20195;-73
2023/08/18 01:11:05;;;;;;;9.17;5.17;;;;;;;;;;5061901;28;20180;-73
2023/08/18 01:14:30;;;;;;;7.57;4.63;;;;;;;;;;5061946;28;20184;-73
2023/08/18 01:17:39;;;;;;;6.33;4.93;;;;;;;;;;5073800;28;20208;-73
2023/08/18 01:20:44;;;;;;;8.13;5.70;;;;;;;;;;5073825;28;20631;-73
2023/08/18 01:23:49;;;;;;;6.37;5.60;;;;;;;;;;5061691;28;20635;-73
2023/08/18 01:26:53;;;;;;;6.53;4.67;;;;;;;;;;5061534;28;20175;-73
2023/08/18 01:29:58;;;;;;;6.57;4.30;;;;;;;;;;5060958;28;20179;-73
2023/08/18 01:33:14;;;;;;;6.33;4.60;;;;;;;;;;5061340;28;20571;-72
2023/08/18 01:36:21;;;;;;;9.47;5.77;;;;;;;;;;5061322;28;20520;-72
2023/08/18 01:39:28;;;;;;;6.37;5.40;;;;;;;;;;5050134;28;20176;-72
2023/08/18 01:42:32;;;;;;;6.53;5.13;;;;;;;;;;5073479;28;20219;-72
2023/08/18 01:45:36;;;;;;;8.93;5.27;;;;;;;;;;5073319;28;20195;-73
2023/08/18 01:48:41;;;;;;;6.17;5.30;;;;;;;;;;5073789;28;20639;-73
2023/08/18 01:51:45;;;;;;;8.90;4.97;;;;;;;;;;5061192;28;20215;-72
2023/08/18 01:54:50;;;;;;;7.00;5.30;;;;;;;;;;5061024;28;20175;-73
2023/08/18 01:57:55;;;;;;;7.63;5.00;;;;;;;;;;5061046;28;20207;-73
2023/08/18 02:00:59;;;;;;;9.77;5.33;;;;;;;;;;5060854;28;20183;-73
2023/08/18 02:04:03;;;;;;;10.23;5.63;;;;;;;;;;5049394;28;20639;-73
2023/08/18 02:07:07;;;;;;;8.30;6.03;;;;;;;;;;5038186;28;20626;-73
2023/08/18 02:10:12;;;;;;;8.07;5.83;;;;;;;;;;5060778;28;20179;-73
2023/08/18 02:13:17;;;;;;;8.57;5.97;;;;;;;;;;5049559;28;20172;-73
2023/08/18 02:16:21;;;;;;;7.20;5.67;;;;;;;;;;5060870;28;20179;-73
2023/08/18 02:19:25;;;;;;;9.47;5.80;;;;;;;;;;5060948;28;20191;-73
2023/08/18 02:22:30;;;;;;;8.53;5.50;;;;;;;;;;5060738;28;20281;-73
2023/08/18 02:25:34;;;;;;;7.17;5.30;;;;;;;;;;5060936;28;20179;-73
2023/08/18 02:28:38;;;;;;;8.00;4.83;;;;;;;;;;5060767;28;20520;-73
2023/08/18 02:31:42;;;;;;;6.60;5.20;;;;;;;;;;5073021;28;20215;-73
2023/08/18 02:34:46;;;;;;;6.97;5.33;;;;;;;;;;5072894;28;20195;-73
2023/08/18 02:37:51;;;;;;;5.57;5.07;;;;;;;;;;5072757;28;20563;-73
2023/08/18 02:40:56;;;;;;;6.70;5.13;;;;;;;;;;5072863;28;20180;-73
2023/08/18 02:44:00;;;;;;;5.83;5.30;;;;;;;;;;5064716;28;20179;-73
2023/08/18 02:47:04;;;;;;;8.47;4.80;;;;;;;;;;5076766;28;20232;-73
2023/08/18 02:50:08;;;;;;;11.27;4.93;;;;;;;;;;5064347;28;20199;-73
2023/08/18 02:53:13;;;;;;;9.43;6.10;;;;;;;;;;5076885;28;20183;-72
2023/08/18 02:56:18;;;;;;;12.80;6.60;;;;;;;;;;5052887;28;20183;-73
2023/08/18 02:59:22;;;;;;;9.07;5.80;;;;;;;;;;5052886;28;20204;-73
2023/08/18 03:02:26;;;;;;;7.40;5.23;;;;;;;;;;5064276;28;20215;-73
2023/08/18 03:05:30;;;;;;;8.07;5.50;;;;;;;;;;5052748;28;20183;-73
2023/08/18 03:08:39;;;;;;;7.90;6.00;;;;;;;;;;5064179;28;20176;-73
2023/08/18 03:11:43;;;;;;;6.47;5.67;;;;;;;;;;5063970;28;20551;-72
2023/08/18 03:14:47;;;;;;;7.03;6.23;;;;;;;;;;5041268;28;20642;-73
2023/08/18 03:17:51;;;;;;;11.53;7.47;;;;;;;;;;5063939;28;20199;-73
2023/08/18 03:20:59;;;;;;;9.60;7.20;;;;;;;;;;5052377;28;20634;-73
2023/08/18 03:24:04;;;;;;;9.57;6.50;;;;;;;;;;5064055;28;20183;-73
2023/08/18 03:27:08;;;;;;;10.57;7.50;;;;;;;;;;5063916;28;20175;-73
2023/08/18 03:30:12;;;;;;;11.63;7.13;;;;;;;;;;5063771;28;20184;-72
2023/08/18 03:33:16;;;;;;;8.97;7.33;;;;;;;;;;5063614;28;20180;-72
2023/08/18 03:36:20;;;;;;;7.30;6.60;;;;;;;;;;5052243;28;20180;-72
2023/08/18 03:39:25;;;;;;;9.77;7.70;;;;;;;;;;5052014;28;20677;-72
2023/08/18 03:42:29;;;;;;;8.77;6.73;;;;;;;;;;5075736;28;20206;-72
2023/08/18 03:45:33;;;;;;;8.97;7.13;;;;;;;;;;5051781;28;20183;-72
2023/08/18 03:48:38;;;;;;;7.83;6.60;;;;;;;;;;5063359;28;20176;-72
2023/08/18 03:51:42;;;;;;;9.37;7.47;;;;;;;;;;5051732;28;20211;-72
2023/08/18 03:54:46;;;;;;;11.17;7.13;;;;;;;;;;5062170;28;20191;-72
2023/08/18 03:57:50;;;;;;;7.80;7.10;;;;;;;;;;5051625;28;20211;-72
2023/08/18 04:01:03;;;;;;;9.10;6.70;;;;;;;;;;5063075;28;20175;-72
2023/08/18 04:04:08;;;;;;;10.00;6.37;;;;;;;;;;5063118;28;20171;-72
2023/08/18 04:07:12;;;;;;;8.33;7.27;;;;;;;;;;5063032;28;20176;-72
2023/08/18 04:10:16;;;;;;;6.90;6.13;;;;;;;;;;5063316;28;20171;-72
2023/08/18 04:13:20;;;;;;;8.10;7.10;;;;;;;;;;5062991;28;20179;-72
2023/08/18 04:16:24;;;;;;;7.83;6.73;;;;;;;;;;5075215;28;20183;-72
2023/08/18 04:19:29;;;;;;;8.33;7.43;;;;;;;;;;5063037;28;20203;-72
2023/08/18 04:22:33;;;;;;;8.13;6.70;;;;;;;;;;5051534;28;20219;-72
2023/08/18 04:25:38;;;;;;;7.27;6.13;;;;;;;;;;5062686;28;20662;-72
2023/08/18 04:28:42;;;;;;;9.40;5.83;;;;;;;;;;5062657;28;20630;-72
2023/08/18 04:31:46;;;;;;;8.63;5.90;;;;;;;;;;5062753;28;20694;-72
2023/08/18 04:34:55;;;;;;;9.10;6.43;;;;;;;;;;5062514;28;20184;-72
2023/08/18 04:37:59;;;;;;;8.20;6.40;;;;;;;;;;5051230;28;20543;-72
2023/08/18 04:41:04;;;;;;;6.57;5.70;;;;;;;;;;5062684;28;20690;-71
2023/08/18 04:44:08;;;;;;;8.20;5.83;;;;;;;;;;5062610;28;20180;-72
2023/08/18 04:47:12;;;;;;;6.70;5.97;;;;;;;;;;5062081;28;20539;-72
2023/08/18 04:50:18;;;;;;;6.77;6.07;;;;;;;;;;5062415;28;20172;-72
2023/08/18 04:53:22;;;;;;;7.17;6.40;;;;;;;;;;5062464;28;20183;-72
2023/08/18 04:56:26;;;;;;;7.33;6.43;;;;;;;;;;5050925;28;20183;-72
2023/08/18 04:59:31;;;;;;;7.03;6.33;;;;;;;;;;5074602;28;20207;-71
2023/08/18 05:02:37;;;;;;;6.60;6.00;;;;;;;;;;5051022;28;20214;-71
2023/08/18 05:06:03;;;;;;;6.33;5.73;;;;;;;;;;5061902;28;20175;-72
2023/08/18 05:09:07;;;;;;;7.53;6.00;;;;;;;;;;5062111;28;20180;-72
2023/08/18 05:12:12;;;;;;;8.63;6.10;;;;;;;;;;5074183;28;20241;-72
2023/08/18 05:15:16;;;;;;;5.80;4.67;;;;;;;;;;5061953;28;20179;-72
2023/08/18 05:18:22;;;;;;;6.37;5.00;;;;;;;;;;5050569;28;20227;-72
2023/08/18 05:21:25;;;;;;;6.87;5.20;;;;;;;;;;5073717;28;20563;-72
2023/08/18 05:24:30;;;;;;;7.33;5.97;;;;;;;;;;5073737;28;20195;-72
2023/08/18 05:27:34;;;;;;;7.30;5.83;;;;;;;;;;5061368;28;20195;-72
2023/08/18 05:30:38;;;;;;;6.00;5.37;;;;;;;;;;5073620;28;20176;-72
2023/08/18 05:33:42;;;;;;;6.73;5.73;;;;;;;;;;5073483;28;20195;-72
2023/08/18 05:36:47;;;;;;;6.73;5.27;;;;;;;;;;5073485;28;20194;-72
2023/08/18 05:39:51;;;;;;;5.03;4.47;;;;;;;;;;5061071;28;20207;-72
2023/08/18 05:42:55;;;;;;;6.80;6.07;;;;;;;;;;5073340;28;20286;-72
2023/08/18 05:46:00;;;;;;;6.43;5.83;;;;;;;;;;5072897;28;20203;-72
2023/08/18 05:49:04;;;;;;;6.83;6.17;;;;;;;;;;5072960;28;20187;-72
2023/08/18 05:52:08;;;;;;;6.13;5.53;;;;;;;;;;5072722;28;20207;-71
2023/08/18 05:55:12;;;;;;;7.53;5.60;;;;;;;;;;5072923;28;20175;-72
2023/08/18 05:58:16;;;;;;;6.57;5.50;;;;;;;;;;5060842;28;20172;-72
2023/08/18 06:01:21;;;;;;;9.00;5.70;;;;;;;;;;5060845;28;20215;-72
2023/08/18 06:04:24;;;;;;;5.93;5.03;;;;;;;;;;5073139;28;20639;-72
2023/08/18 06:07:28;;;;;;;6.17;5.57;;;;;;;;;;5060628;28;20176;-71
2023/08/18 06:10:33;;;;;;;9.17;5.40;;;;;;;;;;5072816;28;20191;-71
2023/08/18 06:13:37;;;;;;;6.50;5.90;;;;;;;;;;5073017;28;20195;-71
2023/08/18 06:16:41;;;;;;;6.63;6.03;;;;;;;;;;5072405;28;20176;-73
2023/08/18 06:19:45;;;;;;;7.27;6.17;;;;;;;;;;5060613;28;20207;-73
2023/08/18 06:22:49;;;;;;;7.27;6.57;;;;;;;;;;5060527;28;20215;-73
2023/08/18 06:25:57;;;;;;;6.93;6.23;;;;;;;;;;5072953;28;20183;-73
2023/08/18 06:29:01;;;;;;;7.13;5.63;;;;;;;;;;5060555;28;20171;-73
2023/08/18 06:32:05;;;;;;;6.40;5.67;;;;;;;;;;5072841;28;20211;-73
2023/08/18 06:35:09;;;;;;;7.90;7.13;;;;;;;;;;5072961;28;20520;-73
2023/08/18 06:38:13;;;;;;;8.37;6.67;;;;;;;;;;5048628;28;20175;-73
2023/08/18 06:41:17;;;;;;;9.50;6.27;;;;;;;;;;5072241;28;20211;-73
2023/08/18 06:44:22;;;;;;;7.77;6.80;;;;;;;;;;5072361;28;20187;-74
2023/08/18 06:47:26;;;;;;;6.80;5.57;;;;;;;;;;5048698;28;20199;-73
2023/08/18 06:50:30;;;;;;;7.73;6.53;;;;;;;;;;5072758;28;20167;-73
2023/08/18 06:53:35;;;;;;;6.47;5.83;;;;;;;;;;5060478;28;20183;-74
2023/08/18 06:56:39;;;;;;;7.87;6.40;;;;;;;;;;5072666;28;20171;-73
2023/08/18 06:59:43;;;;;;;6.97;6.27;;;;;;;;;;5060206;28;20211;-73
2023/08/18 07:02:48;;;;;;;6.77;6.10;;;;;;;;;;5059923;28;20211;-74
2023/08/18 07:05:53;;;;;;;8.53;6.13;;;;;;;;;;5072096;28;20180;-73
2023/08/18 07:08:56;;;;;;;6.60;5.50;;;;;;;;;;5072554;28;20175;-74
2023/08/18 07:12:01;;;;;;;7.10;5.53;;;;;;;;;;5072394;28;20222;-73
2023/08/18 07:15:05;;;;;;;5.67;5.17;;;;;;;;;;5072484;28;20183;-73
2023/08/18 07:18:09;;;;;;;7.20;5.53;;;;;;;;;;5048894;28;20179;-73
2023/08/18 07:21:13;;;;;;;7.63;5.13;;;;;;;;;;5072345;28;20207;-73
2023/08/18 07:24:18;;;;;;;5.67;5.10;;;;;;;;;;5060072;28;20515;-73
2023/08/18 07:27:22;;;;;;;7.30;5.20;;;;;;;;;;5060629;28;20183;-73
2023/08/18 07:30:26;;;;;;;6.40;5.03;;;;;;;;;;5076073;28;20172;-73
2023/08/18 07:33:31;;;;;;;5.67;4.63;;;;;;;;;;5076489;28;20503;-73
2023/08/18 07:36:35;;;;;;;6.30;4.80;;;;;;;;;;5063899;28;20190;-73
2023/08/18 07:39:39;;;;;;;5.53;4.60;;;;;;;;;;5075631;28;20203;-73
2023/08/18 07:42:44;;;;;;;4.77;4.33;;;;;;;;;;5062918;28;20551;-73
2023/08/18 07:45:48;;;;;;;6.17;4.40;;;;;;;;;;5075292;28;20222;-73
2023/08/18 07:48:52;;;;;;;4.77;4.27;;;;;;;;;;5063280;28;20515;-73
2023/08/18 07:51:56;;;;;;;6.33;4.70;;;;;;;;;;5075090;28;20219;-73
2023/08/18 07:55:01;;;;;;;5.00;4.20;;;;;;;;;;5063068;28;20516;-73
2023/08/18 07:58:05;;;;;;;4.90;4.40;;;;;;;;;;5075156;28;20516;-73
2023/08/18 08:01:09;;;;;;;4.47;4.07;;;;;;;;;;5075700;28;20213;-74
2023/08/18 08:04:14;;;;;;;6.87;3.87;;;;;;;;;;5075813;28;20176;-73
2023/08/18 08:07:18;;;;;;;5.97;4.13;;;;;;;;;;5051910;28;20173;-73
2023/08/18 08:10:22;;;;;;;6.77;4.13;;;;;;;;;;5051078;28;20196;-73
2023/08/18 08:13:27;;;;;;;4.00;3.37;;;;;;;;;;5062463;28;20196;-73
2023/08/18 08:16:35;;;;;;;4.60;3.33;;;;;;;;;;5062694;28;20179;-73
2023/08/18 08:19:39;;;;;;;3.27;2.93;;;;;;;;;;5074914;28;20230;-73
2023/08/18 08:22:45;;;;;;;4.68;3.92;;;;;;;;;;5075072;28;20695;-73
2023/08/18 08:25:50;;;;;;;4.75;3.42;;;;;;;;;;5063505;28;20174;-72
2023/08/18 08:28:54;;;;;;;4.53;3.95;;;;;;;;;;5075138;28;20173;-73
2023/08/18 08:31:58;;;;;;;4.13;3.60;;;;;;;;;;5062655;28;20214;-73
2023/08/18 08:35:02;;;;;;;3.85;3.38;;;;;;;;;;5075075;28;20179;-73
2023/08/18 08:38:07;;;;;;;4.57;2.95;;;;;;;;;;5075045;28;20175;-72
2023/08/18 08:41:11;;;;;;;4.07;3.20;;;;;;;;;;5074446;28;20571;-72
2023/08/18 08:44:15;;;;;;;2.80;2.60;;;;;;;;;;5075092;28;20179;-73
2023/08/18 08:47:19;;;;;;;4.07;2.83;;;;;;;;;;5074847;28;20204;-72
2023/08/18 08:50:29;;;;;;;4.43;3.50;;;;;;;;;;5062933;28;20180;-73
2023/08/18 08:53:39;;;;;;;4.40;3.20;;;;;;;;;;5074899;28;20199;-73
2023/08/18 08:56:46;;;;;;;4.10;3.17;;;;;;;;;;5074652;28;20176;-73
2023/08/18 08:59:50;;;;;;;5.65;3.13;;;;;;;;;;5062223;28;20207;-73
2023/08/18 09:02:59;;;;;;;5.00;2.75;;;;;;;;;;5073803;28;20698;-73
2023/08/18 09:06:06;;;;;;;2.90;2.63;;;;;;;;;;5061778;28;20180;-73
2023/08/18 09:09:11;;;;;;;3.30;2.53;;;;;;;;;;5061643;28;20180;-73
2023/08/18 09:12:15;;;;;;;5.05;3.13;;;;;;;;;;5074022;28;20215;-73
2023/08/18 09:15:22;;;;;;;4.43;2.58;;;;;;;;;;5074296;28;20180;-73
2023/08/18 09:18:26;;;;;;;2.83;2.50;;;;;;;;;;5074244;28;20184;-73
2023/08/18 09:21:34;;;;;;;4.70;2.80;;;;;;;;;;5061602;28;20528;-73
2023/08/18 09:24:38;;;;;;;2.72;2.53;;;;;;;;;;5074071;28;20611;-73
2023/08/18 09:27:42;;;;;;;3.70;3.20;;;;;;;;;;5049866;28;20180;-73
2023/08/18 09:30:47;;;;;;;4.18;2.42;;;;;;;;;;5073613;28;20176;-72
2023/08/18 09:33:54;;;;;;;4.13;2.42;;;;;;;;;;5073941;28;20187;-73
2023/08/18 09:36:58;;;;;;;7.72;2.63;;;;;;;;;;5073864;28;20195;-73
2023/08/18 09:40:02;;;;;;;3.05;2.72;;;;;;;;;;5073502;28;20207;-73
2023/08/18 09:43:06;;;;;;;6.03;2.63;;;;;;;;;;5049823;28;20224;-73
2023/08/18 09:46:13;;;;;;;4.25;2.95;;;;;;;;;;5073409;28;20203;-73
2023/08/18 09:49:19;;;;;;;2.60;2.40;;;;;;;;;;5061349;28;20635;-73
2023/08/18 09:52:25;;;;;;;3.55;2.53;;;;;;;;;;5072531;28;20211;-73
2023/08/18 09:55:41;;;;;;;5.90;2.58;;;;;;;;;;5073862;28;20176;-73
2023/08/18 09:58:55;;;;;;;2.60;2.40;;;;;;;;;;5073352;28;20188;-73
2023/08/18 10:02:00;;;;;;;3.80;2.35;;;;;;;;;;5061053;28;20216;-73
2023/08/18 10:05:05;;;;;;;2.15;1.95;;;;;;;;;;5061098;28;20184;-73
2023/08/18 10:08:09;;;;;;;4.28;2.50;;;;;;;;;;5049356;28;20175;-73
2023/08/18 10:11:14;;;;;;;3.65;2.90;;;;;;;;;;5073286;28;20215;-73
2023/08/18 10:14:21;;;;;;;3.47;2.65;;;;;;;;;;5073414;28;20179;-73
2023/08/18 10:17:25;;;;;;;2.85;2.55;;;;;;;;;;5073344;28;20183;-73
2023/08/18 10:20:29;;;;;;;4.13;3.00;;;;;;;;;;5072974;28;20204;-73
2023/08/18 10:23:33;;;;;;;4.32;2.75;;;;;;;;;;5073318;28;20180;-73
2023/08/18 10:26:42;;;;;;;2.95;2.25;;;;;;;;;;5060909;28;20176;-72
2023/08/18 10:29:49;;;;;;;3.80;2.47;;;;;;;;;;5060942;28;20176;-73
2023/08/18 10:33:00;;;;;;;2.90;2.20;;;;;;;;;;5072958;28;20220;-73
2023/08/18 10:36:05;;;;;;;2.67;2.38;;;;;;;;;;5072945;28;20187;-73
2023/08/18 10:39:23;;;;;;;2.85;2.25;;;;;;;;;;5073178;28;20180;-73
2023/08/18 10:42:27;;;;;;;3.22;2.05;;;;;;;;;;5072926;28;20212;-72
2023/08/18 10:45:31;;;;;;;2.25;2.03;;;;;;;;;;5060559;28;20195;-73
2023/08/18 10:48:35;;;;;;;2.15;1.98;;;;;;;;;;5073129;28;20184;-73
2023/08/18 10:51:39;;;;;;;3.00;2.08;;;;;;;;;;5060389;28;20207;-74
2023/08/18 10:54:43;;;;;;;2.90;2.22;;;;;;;;;;5073109;28;20171;-74
2023/08/18 10:57:48;;;;;;;2.05;1.85;;;;;;;;;;5072832;28;20176;-73
2023/08/18 11:00:51;;;;;;;2.63;2.08;;;;;;;;;;5072751;28;20670;-73
2023/08/18 11:03:56;;;;;;;4.35;2.55;;;;;;;;;;5075874;28;20172;-73
2023/08/18 11:07:01;;;;;;;2.17;1.92;;;;;;;;;;5076114;28;20180;-73
2023/08/18 11:10:23;;;;;;;2.15;1.80;;;;;;;;;;5052807;28;20172;-73
2023/08/18 11:13:28;;;;;;;3.53;1.80;;;;;;;;;;5076155;28;20184;-74
2023/08/18 11:16:35;;;;;;;2.30;1.90;;;;;;;;;;5063541;28;20627;-73
2023/08/18 11:19:39;;;;;;;1.88;1.50;;;;;;;;;;5075749;28;20184;-73
2023/08/18 11:22:45;;;;;;;4.85;1.80;;;;;;;;;;5063306;28;20215;-74
2023/08/18 11:25:50;;;;;;;3.10;1.45;;;;;;;;;;5064009;28;20184;-74
2023/08/18 11:28:54;;;;;;;2.45;1.83;;;;;;;;;;5076502;28;20172;-74
2023/08/18 11:31:58;;;;;;;2.55;1.70;;;;;;;;;;5063866;28;20211;-74
2023/08/18 11:35:04;;;;;;;2.55;2.05;;;;;;;;;;5075907;28;20191;-74
2023/08/18 11:38:08;;;;;;;5.35;2.00;;;;;;;;;;5063567;28;20176;-74
2023/08/18 11:41:12;;;;;;;2.65;1.88;;;;;;;;;;5075600;28;20223;-73
2023/08/18 11:44:19;;;;;;;2.03;1.60;;;;;;;;;;5075734;28;20180;-73
2023/08/18 11:47:23;;;;;;;1.60;1.50;;;;;;;;;;5076119;28;20196;-74
2023/08/18 11:50:38;;;;;;;1.70;1.55;;;;;;;;;;5076037;28;20180;-74
2023/08/18 11:53:42;;;;;;;2.03;1.48;;;;;;;;;;5075895;28;20200;-73
2023/08/18 11:56:50;;;;;;;2.17;1.75;;;;;;;;;;5075527;28;20179;-73
2023/08/18 11:59:55;;;;;;;2.10;1.50;;;;;;;;;;5062832;28;20192;-74
2023/08/18 12:02:59;;;;;;;1.92;1.55;;;;;;;;;;5074915;28;20220;-73
2023/08/18 12:06:04;;;;;;;1.75;1.65;;;;;;;;;;5074960;28;20168;-74
2023/08/18 12:09:12;;;;;;;1.92;1.80;;;;;;;;;;5062976;28;20183;-74
2023/08/18 12:12:16;;;;;;;2.05;1.58;;;;;;;;;;5075176;28;20683;-74
2023/08/18 12:15:21;;;;;;;1.65;1.55;;;;;;;;;;5074275;28;20631;-74
2023/08/18 12:18:25;;;;;;;1.90;1.52;;;;;;;;;;5063034;28;20176;-74
2023/08/18 12:21:36;;;;;;;1.60;1.48;;;;;;;;;;5074971;28;20227;-73
2023/08/18 12:24:40;;;;;;;1.95;1.40;;;;;;;;;;5075321;28;20179;-73
2023/08/18 12:27:49;;;;;;;2.20;1.60;;;;;;;;;;5062902;28;20184;-73
2023/08/18 12:30:53;;;;;;;1.70;1.50;;;;;;;;;;5075238;28;20175;-73
2023/08/18 12:33:57;;;;;;;2.03;1.25;;;;;;;;;;5062470;28;20631;-74
2023/08/18 12:37:02;;;;;;;1.60;1.25;;;;;;;;;;5074933;28;20195;-73
2023/08/18 12:40:06;;;;;;;4.57;1.40;;;;;;;;;;5074627;28;20180;-74
2023/08/18 12:43:11;;;;;;;1.30;1.20;;;;;;;;;;5062309;28;20175;-73
2023/08/18 12:46:15;;;;;;;2.95;1.45;;;;;;;;;;5074554;28;20204;-73
2023/08/18 12:49:20;;;;;;;2.22;1.52;;;;;;;;;;5074503;28;20517;-74
2023/08/18 12:52:24;;;;;;;1.67;1.30;;;;;;;;;;5074360;28;20215;-74
2023/08/18 12:55:28;;;;;;;2.95;1.55;;;;;;;;;;5074371;28;20529;-74
2023/08/18 12:58:32;;;;;;;3.13;1.70;;;;;;;;;;5074535;28;20535;-74
2023/08/18 13:01:36;;;;;;;1.92;1.60;;;;;;;;;;5074436;28;20223;-74
2023/08/18 13:04:40;;;;;;;2.70;1.52;;;;;;;;;;5074202;28;20176;-74
2023/08/18 13:07:47;;;;;;;2.65;1.60;;;;;;;;;;5074089;28;20631;-74
2023/08/18 13:10:52;;;;;;;2.63;1.60;;;;;;;;;;5074388;28;20176;-73
2023/08/18 13:13:56;;;;;;;2.47;1.45;;;;;;;;;;5061770;28;20627;-74
2023/08/18 13:17:00;;;;;;;1.92;1.52;;;;;;;;;;5074162;28;20172;-74
2023/08/18 13:20:06;;;;;;;2.53;1.50;;;;;;;;;;5073884;28;20188;-74
2023/08/18 13:23:10;;;;;;;2.28;1.50;;;;;;;;;;5050106;28;20666;-74
2023/08/18 13:26:14;;;;;;;1.92;1.40;;;;;;;;;;5073651;28;20191;-74
2023/08/18 13:29:18;;;;;;;6.68;1.73;;;;;;;;;;5073762;28;20199;-75
2023/08/18 13:32:22;;;;;;;2.30;1.70;;;;;;;;;;5073726;28;20690;-74
2023/08/18 13:35:27;;;;;;;2.25;1.52;;;;;;;;;;5061340;28;20219;-73
2023/08/18 13:38:31;;;;;;;2.50;1.63;;;;;;;;;;5073787;28;20176;-75
2023/08/18 13:41:35;;;;;;;3.97;1.90;;;;;;;;;;5073245;28;20710;-75
2023/08/18 13:44:39;;;;;;;2.47;1.42;;;;;;;;;;5061487;28;20650;-74
2023/08/18 13:47:44;;;;;;;2.78;1.70;;;;;;;;;;5067504;28;20179;-75
2023/08/18 13:50:48;;;;;;;1.85;1.33;;;;;;;;;;5073200;28;20191;-75
2023/08/18 13:53:52;;;;;;;7.78;2.60;;;;;;;;;;5061088;28;20200;-74
2023/08/18 13:56:56;;;;;;;8.40;2.08;;;;;;;;;;5061152;28;20180;-74
2023/08/18 14:00:00;;;;;;;3.63;1.80;;;;;;;;;;5049874;28;20176;-74
2023/08/18 14:03:04;;;;;;;3.28;1.60;;;;;;;;;;5073314;28;20211;-73
2023/08/18 14:06:09;;;;;;;1.95;1.70;;;;;;;;;;5073304;28;20203;-74
2023/08/18 14:09:13;;;;;;;2.63;1.60;;;;;;;;;;5049412;28;20196;-74
2023/08/18 14:12:17;;;;;;;3.60;1.60;;;;;;;;;;5061000;28;20208;-73
2023/08/18 14:15:22;;;;;;;2.70;1.70;;;;;;;;;;5073265;28;20180;-74
2023/08/18 14:18:26;;;;;;;3.03;1.90;;;;;;;;;;5060932;28;20183;-73
2023/08/18 14:21:30;;;;;;;2.75;1.60;;;;;;;;;;5060900;28;20227;-73
2023/08/18 14:24:35;;;;;;;2.55;1.63;;;;;;;;;;5073758;28;20172;-74
2023/08/18 14:27:39;;;;;;;3.03;1.73;;;;;;;;;;5060706;28;20180;-74
2023/08/18 14:30:43;;;;;;;2.25;1.63;;;;;;;;;;5073304;28;20619;-74
2023/08/18 14:33:48;;;;;;;2.85;1.80;;;;;;;;;;5073267;28;20179;-74
2023/08/18 14:36:52;;;;;;;2.58;1.85;;;;;;;;;;5072962;28;20164;-74
2023/08/18 14:39:56;;;;;;;2.50;1.70;;;;;;;;;;5077097;28;20171;-74
2023/08/18 14:43:00;;;;;;;3.60;1.55;;;;;;;;;;5076884;28;20227;-73
2023/08/18 14:46:05;;;;;;;3.00;1.52;;;;;;;;;;5077024;28;20542;-74
2023/08/18 14:49:09;;;;;;;1.52;1.42;;;;;;;;;;5077186;28;20175;-74
2023/08/18 14:52:13;;;;;;;2.28;1.70;;;;;;;;;;5064660;28;20223;-73
2023/08/18 14:55:17;;;;;;;3.08;1.50;;;;;;;;;;5077087;28;20183;-74
2023/08/18 14:58:28;;;;;;;2.33;1.60;;;;;;;;;;5064387;28;20639;-74
2023/08/18 15:01:32;;;;;;;3.30;1.30;;;;;;;;;;5076796;28;20227;-73
2023/08/18 15:04:37;;;;;;;1.80;1.60;;;;;;;;;;5076614;28;20195;-74
2023/08/18 15:07:41;;;;;;;2.65;1.60;;;;;;;;;;5076829;28;20206;-74
2023/08/18 15:10:46;;;;;;;3.40;1.75;;;;;;;;;;5076419;28;20635;-73
2023/08/18 15:13:51;;;;;;;2.20;1.85;;;;;;;;;;5076755;28;20180;-74
2023/08/18 15:16:55;;;;;;;1.70;1.45;;;;;;;;;;5064346;28;20179;-74
2023/08/18 15:19:59;;;;;;;2.42;1.50;;;;;;;;;;5064221;28;20184;-74
2023/08/18 15:23:03;;;;;;;4.85;1.85;;;;;;;;;;5076111;28;20219;-73
2023/08/18 15:26:07;;;;;;;2.13;1.63;;;;;;;;;;5076765;28;20519;-74
2023/08/18 15:29:12;;;;;;;3.40;1.75;;;;;;;;;;5064341;28;20503;-74
2023/08/18 15:32:16;;;;;;;2.22;1.70;;;;;;;;;;5063867;28;20212;-74
2023/08/18 15:35:20;;;;;;;5.07;1.55;;;;;;;;;;5076334;28;20175;-74
2023/08/18 15:38:25;;;;;;;3.72;2.05;;;;;;;;;;5063766;28;20196;-74
2023/08/18 15:41:29;;;;;;;2.15;1.48;;;;;;;;;;5063484;28;20224;-74
2023/08/18 15:44:33;;;;;;;5.25;1.85;;;;;;;;;;5063849;28;20183;-74
2023/08/18 15:47:37;;;;;;;13.63;10.50;;;;;;;;;;5075730;28;20199;-74
2023/08/18 15:50:43;;;;;;;37.10;23.75;;;;;;;;;;5062334;28;20183;-74
2023/08/18 15:53:47;;;;;;;24.10;13.35;;;;;;;;;;5063892;28;20543;-74
2023/08/18 15:56:51;;;;;;;9.30;6.25;;;;;;;;;;5075810;28;20198;-73
2023/08/18 15:59:56;;;;;;;9.68;6.25;;;;;;;;;;5063340;28;20176;-74
2023/08/18 16:03:00;;;;;;;5.22;3.53;;;;;;;;;;5063021;28;20224;-73
2023/08/18 16:06:05;;;;;;;5.53;3.42;;;;;;;;;;5063145;28;20180;-74
2023/08/18 16:09:09;;;;;;;4.90;3.40;;;;;;;;;;5063349;28;20188;-74
2023/08/18 16:12:13;;;;;;;7.35;3.58;;;;;;;;;;5062807;28;20207;-73
2023/08/18 16:15:17;;;;;;;3.03;2.25;;;;;;;;;;5062884;28;20204;-73
2023/08/18 16:18:21;;;;;;;5.80;3.80;;;;;;;;;;5062902;28;20191;-74
2023/08/18 16:21:25;;;;;;;5.65;4.13;;;;;;;;;;5074965;28;20563;-73
2023/08/18 16:24:29;;;;;;;6.03;3.70;;;;;;;;;;5075264;28;20527;-73
2023/08/18 16:27:34;;;;;;;4.85;2.63;;;;;;;;;;5075037;28;20544;-74
2023/08/18 16:30:39;;;;;;;2.53;1.88;;;;;;;;;;5062888;28;20180;-73
2023/08/18 16:33:44;;;;;;;5.72;4.97;;;;;;;;;;5074842;28;20512;-74
2023/08/18 16:36:48;;;;;;;5.65;4.00;;;;;;;;;;5074854;28;20175;-73
2023/08/18 16:39:52;;;;;;;7.05;4.30;;;;;;;;;;5051217;28;20186;-73
2023/08/18 16:42:57;;;;;;;6.55;4.05;;;;;;;;;;5074486;28;20222;-74
2023/08/18 16:46:01;;;;;;;4.35;3.15;;;;;;;;;;5062359;28;20563;-74
2023/08/18 16:49:05;;;;;;;2.50;2.10;;;;;;;;;;5074537;28;20663;-74
2023/08/18 16:52:09;;;;;;;2.60;1.92;;;;;;;;;;5050708;28;20218;-74
2023/08/18 16:55:13;;;;;;;3.28;1.80;;;;;;;;;;5074963;28;20180;-73
2023/08/18 16:58:17;;;;;;;2.03;1.60;;;;;;;;;;5062024;28;20181;-74
2023/08/18 17:01:21;;;;;;;4.50;1.77;;;;;;;;;;5073807;28;20217;-73
2023/08/18 17:04:28;;;;;;;2.60;1.75;;;;;;;;;;5074377;28;20192;-74
2023/08/18 17:07:32;;;;;;;4.22;1.58;;;;;;;;;;5074674;28;20179;-74
2023/08/18 17:10:36;;;;;;;4.30;1.88;;;;;;;;;;5074052;28;20182;-74
2023/08/18 17:13:40;;;;;;;2.65;1.90;;;;;;;;;;5061984;28;20177;-73
2023/08/18 17:16:44;;;;;;;5.90;1.80;;;;;;;;;;5074476;28;20180;-73
2023/08/18 17:19:49;;;;;;;2.67;1.63;;;;;;;;;;5062281;28;20180;-73
2023/08/18 17:22:53;;;;;;;1.85;1.55;;;;;;;;;;5074168;28;20234;-73
2023/08/18 17:25:57;;;;;;;5.55;1.80;;;;;;;;;;5061863;28;20201;-73
2023/08/18 17:29:02;;;;;;;2.45;1.95;;;;;;;;;;5061766;28;20659;-73
2023/08/18 17:32:06;;;;;;;1.98;1.70;;;;;;;;;;5061671;28;20214;-73
2023/08/18 17:35:10;;;;;;;3.20;2.05;;;;;;;;;;5061309;28;20177;-74
2023/08/18 17:38:14;;;;;;;6.28;2.05;;;;;;;;;;5061263;28;20644;-73
2023/08/18 17:41:19;;;;;;;4.78;1.70;;;;;;;;;;5073556;28;20221;-73
2023/08/18 17:44:23;;;;;;;3.88;1.90;;;;;;;;;;5038678;28;20173;-73
2023/08/18 17:47:27;;;;;;;3.55;2.10;;;;;;;;;;5073317;28;20210;-73
2023/08/18 17:50:31;;;;;;;2.00;1.85;;;;;;;;;;5061220;28;20184;-74
2023/08/18 17:53:35;;;;;;;2.15;1.70;;;;;;;;;;5073334;28;20168;-74
2023/08/18 17:56:39;;;;;;;3.05;1.98;;;;;;;;;;5073249;28;20178;-74
2023/08/18 17:59:43;;;;;;;2.50;1.75;;;;;;;;;;5073786;28;20508;-74
2023/08/18 18:02:47;;;;;;;2.70;1.98;;;;;;;;;;5049557;28;20221;-74
2023/08/18 18:05:51;;;;;;;8.10;2.20;;;;;;;;;;5073047;28;20198;-74
2023/08/18 18:08:55;;;;;;;7.07;2.45;;;;;;;;;;5073290;28;20199;-74
2023/08/18 18:11:59;;;;;;;3.60;2.28;;;;;;;;;;5060039;28;20216;-73
2023/08/18 18:15:04;;;;;;;7.20;2.20;;;;;;;;;;5073331;28;20174;-74
2023/08/18 18:18:08;;;;;;;7.50;2.43;;;;;;;;;;5060793;28;20660;-75
2023/08/18 18:21:14;;;;;;;4.70;2.30;;;;;;;;;;5049184;28;20215;-74
2023/08/18 18:24:18;;;;;;;5.30;2.27;;;;;;;;;;5060851;28;20176;-74
2023/08/18 18:27:26;;;;;;;3.50;2.50;;;;;;;;;;5073101;28;20189;-75